Pasadena, Florida
Current Conditions -  °F | °C
As of 5:21 AM on Monday 26 Jan 2015 (Local Time) from KSPG Reporting Station
Light Rain Light Rain  
Wind Chill: 61°   Ceiling: 4800
Heat Index: 61°   Visibility: 3mi
Dew Point: 57°   Wind: 16mph
Humidity: 87%   Direction: 320°NW
Pressure: 29.86"   Gusts: 31mph
Location:  27.7562°N, 82.7184°W
Report Text: KSPG 261021Z AUTO 32014G27KT 3SM -RA BR SCT014 BKN048 OVC100 16/14 A2986 RMK AO2 PK WND 30027/1012 RAB12 P0005 T01610139
Loading
Personal Weather Stations






























Interactive Weather Map New forecast layout! Learn more

10-Day Weather Forecast

Advertisements
Track Severe Weather on mobile